Time;durP1;ratioP1;P1;durP2;ratioP2;P2;SDS_P1;SDS_P2;PMS_P1;PMS_P2;Temp;Humidity;BMP_temperature;BMP_pressure;BME280_temperature;BME280_humidity;BME280_pressure;Samples;Min_cycle;Max_cycle;Signal;HPM_P1;HPM_P2
2021/04/27 00:01:21;;;;;;;4.93;2.83;;;;;;;;;;5076459;28;20027;-67
2021/04/27 00:03:47;;;;;;;9.15;3.78;;;;;;;;;;5093658;28;20032;-67
2021/04/27 00:06:13;;;;;;;4.85;2.85;;;;;;;;;;5102742;28;20027;-67
2021/04/27 00:08:40;;;;;;;5.75;2.50;;;;;;;;;;5099862;28;20103;-67
2021/04/27 00:11:07;;;;;;;3.70;2.40;;;;;;;;;;5111048;28;20151;-67
2021/04/27 00:13:33;;;;;;;7.40;3.50;;;;;;;;;;5097280;28;20020;-67
2021/04/27 00:16:00;;;;;;;4.82;2.88;;;;;;;;;;5111795;28;20023;-68
2021/04/27 00:18:26;;;;;;;6.20;2.80;;;;;;;;;;5105756;28;20020;-67
2021/04/27 00:20:52;;;;;;;7.57;2.60;;;;;;;;;;5097159;28;20019;-68
2021/04/27 00:23:18;;;;;;;5.03;2.90;;;;;;;;;;5100627;28;20020;-67
2021/04/27 00:25:44;;;;;;;4.72;2.97;;;;;;;;;;5093143;28;20551;-68
2021/04/27 00:28:11;;;;;;;5.75;2.90;;;;;;;;;;5093076;28;20021;-68
2021/04/27 00:30:37;;;;;;;10.73;3.92;;;;;;;;;;5092710;28;20055;-68
2021/04/27 00:33:03;;;;;;;7.13;3.63;;;;;;;;;;5105855;28;20019;-67
2021/04/27 00:35:31;;;;;;;4.13;2.97;;;;;;;;;;5094533;28;20428;-66
2021/04/27 00:37:57;;;;;;;6.07;2.88;;;;;;;;;;5103127;28;20016;-67
2021/04/27 00:40:23;;;;;;;5.72;3.28;;;;;;;;;;5095733;28;20237;-68
2021/04/27 00:42:49;;;;;;;9.27;3.08;;;;;;;;;;5101516;28;20095;-68
2021/04/27 00:45:17;;;;;;;7.75;3.20;;;;;;;;;;5100606;28;20072;-67
2021/04/27 00:47:43;;;;;;;4.13;3.70;;;;;;;;;;5106822;28;20063;-67
2021/04/27 00:50:11;;;;;;;6.47;2.88;;;;;;;;;;5075854;28;20077;-67
2021/04/27 00:52:37;;;;;;;5.15;3.70;;;;;;;;;;5101215;28;20383;-67
2021/04/27 00:55:04;;;;;;;7.07;3.50;;;;;;;;;;5096551;28;20486;-66
2021/04/27 00:57:30;;;;;;;4.80;2.70;;;;;;;;;;5094560;28;20027;-67
2021/04/27 00:59:57;;;;;;;6.75;2.72;;;;;;;;;;5105270;28;20063;-67
2021/04/27 01:02:24;;;;;;;5.85;2.72;;;;;;;;;;5105163;28;20015;-67
2021/04/27 01:04:50;;;;;;;5.13;2.92;;;;;;;;;;5108500;28;20027;-67
2021/04/27 01:07:17;;;;;;;5.32;2.70;;;;;;;;;;5094530;28;20039;-67
2021/04/27 01:09:44;;;;;;;5.57;2.72;;;;;;;;;;5097331;28;20078;-66
2021/04/27 01:12:21;;;;;;;5.88;2.50;;;;;;;;;;5094347;28;20121;-70
2021/04/27 01:15:07;;;;;;;6.00;2.95;;;;;;;;;;5094369;28;20032;-68
2021/04/27 01:17:33;;;;;;;4.55;2.40;;;;;;;;;;5097834;28;20027;-67
2021/04/27 01:20:06;;;;;;;5.57;2.75;;;;;;;;;;5104726;28;20413;-66
2021/04/27 01:22:53;;;;;;;4.60;2.53;;;;;;;;;;5110092;28;20382;-68
2021/04/27 01:25:42;;;;;;;4.75;2.78;;;;;;;;;;5080048;28;20130;-68
2021/04/27 01:28:08;;;;;;;5.90;2.80;;;;;;;;;;5107629;28;20482;-66
2021/04/27 01:30:38;;;;;;;4.35;2.53;;;;;;;;;;5099369;28;20024;-67
2021/04/27 01:33:05;;;;;;;4.68;2.80;;;;;;;;;;5092758;28;20027;-67
2021/04/27 01:35:32;;;;;;;5.68;3.38;;;;;;;;;;5107607;28;20028;-67
2021/04/27 01:37:58;;;;;;;5.97;2.72;;;;;;;;;;5104812;28;20024;-68
2021/04/27 01:40:24;;;;;;;3.78;2.72;;;;;;;;;;5111747;28;20027;-68
2021/04/27 01:42:51;;;;;;;7.43;3.50;;;;;;;;;;5095835;28;20028;-67
2021/04/27 01:45:17;;;;;;;8.15;2.80;;;;;;;;;;5100457;28;20043;-66
2021/04/27 01:47:44;;;;;;;6.20;2.75;;;;;;;;;;5100702;28;20019;-66
2021/04/27 01:50:10;;;;;;;5.43;2.72;;;;;;;;;;5097192;28;20493;-67
2021/04/27 01:52:37;;;;;;;8.93;3.92;;;;;;;;;;5104737;28;20034;-68
2021/04/27 01:55:05;;;;;;;4.15;2.70;;;;;;;;;;5110898;28;20023;-67
2021/04/27 01:57:31;;;;;;;6.50;3.45;;;;;;;;;;5110631;28;20482;-67
2021/04/27 01:59:57;;;;;;;8.38;2.80;;;;;;;;;;5101489;28;20111;-68
2021/04/27 02:02:23;;;;;;;7.13;3.17;;;;;;;;;;5101970;28;20585;-69
2021/04/27 02:04:49;;;;;;;6.82;2.80;;;;;;;;;;5115364;28;20119;-67
2021/04/27 02:07:15;;;;;;;5.97;3.17;;;;;;;;;;5097581;28;20028;-68
2021/04/27 02:09:42;;;;;;;6.60;3.05;;;;;;;;;;5096658;28;20032;-68
2021/04/27 02:12:08;;;;;;;6.95;2.88;;;;;;;;;;5104773;28;20127;-67
2021/04/27 02:14:34;;;;;;;7.22;3.13;;;;;;;;;;5095169;28;20032;-68
2021/04/27 02:17:03;;;;;;;6.03;3.33;;;;;;;;;;5097118;28;20035;-67
2021/04/27 02:19:31;;;;;;;5.50;3.28;;;;;;;;;;5076708;28;20043;-67
2021/04/27 02:22:00;;;;;;;6.43;3.83;;;;;;;;;;5081876;28;20020;-67
2021/04/27 02:24:26;;;;;;;5.20;3.58;;;;;;;;;;5093875;28;20040;-67
2021/04/27 02:26:53;;;;;;;8.60;3.53;;;;;;;;;;5082699;28;20026;-67
2021/04/27 02:29:20;;;;;;;4.43;2.88;;;;;;;;;;5078273;28;20513;-67
2021/04/27 02:31:46;;;;;;;7.18;3.08;;;;;;;;;;5078599;28;20082;-67
2021/04/27 02:34:13;;;;;;;7.55;4.25;;;;;;;;;;5075459;28;20111;-67
2021/04/27 02:36:40;;;;;;;7.32;3.42;;;;;;;;;;5078339;28;20456;-66
2021/04/27 02:39:07;;;;;;;7.38;3.55;;;;;;;;;;5075389;28;20376;-68
2021/04/27 02:41:34;;;;;;;11.38;4.28;;;;;;;;;;5087583;28;20047;-67
2021/04/27 02:44:01;;;;;;;6.55;3.10;;;;;;;;;;5082688;28;20032;-68
2021/04/27 02:46:27;;;;;;;4.43;2.80;;;;;;;;;;5082720;28;20032;-67
2021/04/27 02:48:54;;;;;;;6.43;3.08;;;;;;;;;;5091160;28;20386;-67
2021/04/27 02:51:21;;;;;;;4.32;2.95;;;;;;;;;;5088244;28;20031;-67
2021/04/27 02:53:47;;;;;;;7.82;3.17;;;;;;;;;;5091298;28;20024;-66
2021/04/27 02:56:13;;;;;;;7.47;3.20;;;;;;;;;;5093235;28;20028;-66
2021/04/27 02:58:39;;;;;;;5.55;3.30;;;;;;;;;;5075633;28;20601;-66
2021/04/27 03:01:06;;;;;;;6.43;3.30;;;;;;;;;;5076401;28;20535;-67
2021/04/27 03:03:32;;;;;;;4.50;2.92;;;;;;;;;;5079194;28;20463;-68
2021/04/27 03:05:59;;;;;;;5.80;2.95;;;;;;;;;;5082691;28;20556;-67
2021/04/27 03:08:25;;;;;;;7.07;3.15;;;;;;;;;;5076635;28;20043;-68
2021/04/27 03:10:52;;;;;;;5.97;3.05;;;;;;;;;;5080915;28;20123;-68
2021/04/27 03:13:18;;;;;;;7.95;3.75;;;;;;;;;;5112535;28;20156;-68
2021/04/27 03:15:44;;;;;;;10.32;3.35;;;;;;;;;;5103544;28;20036;-68
2021/04/27 03:18:11;;;;;;;6.15;2.90;;;;;;;;;;5094283;28;20115;-67
2021/04/27 03:20:37;;;;;;;6.70;2.65;;;;;;;;;;5097929;28;20099;-68
2021/04/27 03:23:03;;;;;;;7.07;3.00;;;;;;;;;;5099283;28;20016;-68
2021/04/27 03:25:29;;;;;;;7.50;3.30;;;;;;;;;;5101929;28;20027;-68
2021/04/27 03:27:56;;;;;;;5.10;2.80;;;;;;;;;;5104050;28;20386;-68
2021/04/27 03:30:22;;;;;;;6.45;3.20;;;;;;;;;;5101791;28;20046;-68
2021/04/27 03:32:48;;;;;;;5.72;3.20;;;;;;;;;;5104155;28;20081;-69
2021/04/27 03:35:14;;;;;;;9.90;3.17;;;;;;;;;;5095534;28;20032;-67
2021/04/27 03:37:41;;;;;;;7.05;2.80;;;;;;;;;;5109598;28;20019;-68
2021/04/27 03:40:08;;;;;;;6.80;3.10;;;;;;;;;;5104180;28;20502;-67
2021/04/27 03:42:34;;;;;;;5.20;2.63;;;;;;;;;;5101078;28;20158;-67
2021/04/27 03:45:01;;;;;;;6.80;2.42;;;;;;;;;;5102597;28;20024;-67
2021/04/27 03:47:27;;;;;;;9.55;2.75;;;;;;;;;;5095494;28;20031;-67
2021/04/27 03:49:53;;;;;;;3.92;2.25;;;;;;;;;;5093638;28;20043;-67
2021/04/27 03:52:19;;;;;;;6.05;2.70;;;;;;;;;;5102342;28;20032;-69
2021/04/27 03:54:45;;;;;;;5.78;2.63;;;;;;;;;;5100224;28;20039;-68
2021/04/27 03:57:11;;;;;;;5.35;3.05;;;;;;;;;;5093305;28;20055;-68
2021/04/27 03:59:37;;;;;;;6.00;2.60;;;;;;;;;;5080905;28;20371;-66
2021/04/27 04:02:03;;;;;;;6.20;2.83;;;;;;;;;;5105032;28;20020;-66
2021/04/27 04:04:29;;;;;;;6.25;2.67;;;;;;;;;;5104303;28;20055;-67
2021/04/27 04:06:55;;;;;;;5.18;2.63;;;;;;;;;;5096939;28;20381;-66
2021/04/27 04:09:21;;;;;;;5.97;3.08;;;;;;;;;;5099829;28;20024;-67
2021/04/27 04:11:48;;;;;;;6.65;2.80;;;;;;;;;;5105776;28;20406;-67
2021/04/27 04:14:14;;;;;;;6.68;3.25;;;;;;;;;;5077542;28;20452;-68
2021/04/27 04:16:40;;;;;;;9.23;2.60;;;;;;;;;;5108390;28;20024;-67
2021/04/27 04:19:06;;;;;;;4.80;3.13;;;;;;;;;;5113671;28;20382;-65
2021/04/27 04:21:32;;;;;;;7.43;2.50;;;;;;;;;;5112264;28;20134;-68
2021/04/27 04:23:58;;;;;;;3.97;2.55;;;;;;;;;;5109944;28;20035;-69
2021/04/27 04:26:25;;;;;;;6.57;2.65;;;;;;;;;;5106753;28;20024;-67
2021/04/27 04:28:51;;;;;;;4.68;2.50;;;;;;;;;;5107033;28;20031;-67
2021/04/27 04:31:17;;;;;;;6.40;2.80;;;;;;;;;;5104908;28;20499;-66
2021/04/27 04:33:43;;;;;;;7.78;3.00;;;;;;;;;;5096222;28;20021;-67
2021/04/27 04:36:09;;;;;;;4.82;2.47;;;;;;;;;;5100114;28;20020;-65
2021/04/27 04:38:35;;;;;;;7.22;3.13;;;;;;;;;;5101885;28;20031;-66
2021/04/27 04:41:01;;;;;;;5.22;2.70;;;;;;;;;;5092585;28;20017;-67
2021/04/27 04:43:27;;;;;;;4.60;2.80;;;;;;;;;;5105090;28;20024;-67
2021/04/27 04:45:53;;;;;;;4.78;2.53;;;;;;;;;;5111404;28;20069;-68
2021/04/27 04:48:19;;;;;;;6.97;3.10;;;;;;;;;;5106289;28;20032;-68
2021/04/27 04:50:46;;;;;;;10.00;3.20;;;;;;;;;;5096997;28;20024;-67
2021/04/27 04:53:12;;;;;;;5.22;2.70;;;;;;;;;;5105403;28;20027;-67
2021/04/27 04:55:38;;;;;;;9.73;3.20;;;;;;;;;;5095891;28;20028;-67
2021/04/27 04:58:05;;;;;;;5.07;2.80;;;;;;;;;;5104666;28;20027;-68
2021/04/27 05:00:31;;;;;;;8.50;3.15;;;;;;;;;;5106478;28;20027;-68
2021/04/27 05:02:57;;;;;;;9.23;3.08;;;;;;;;;;5101741;28;20021;-68
2021/04/27 05:05:24;;;;;;;10.40;2.75;;;;;;;;;;5101659;28;20517;-68
2021/04/27 05:08:02;;;;;;;3.97;2.53;;;;;;;;;;5092439;28;20385;-69
2021/04/27 05:10:29;;;;;;;9.07;2.90;;;;;;;;;;5093426;28;20106;-67
2021/04/27 05:12:55;;;;;;;4.57;2.70;;;;;;;;;;5110797;28;20039;-68
2021/04/27 05:15:21;;;;;;;6.25;2.63;;;;;;;;;;5117549;28;20194;-67
2021/04/27 05:17:47;;;;;;;4.32;2.53;;;;;;;;;;5099278;28;20123;-68
2021/04/27 05:20:13;;;;;;;8.43;2.97;;;;;;;;;;5098645;28;20028;-67
2021/04/27 05:22:40;;;;;;;6.95;3.20;;;;;;;;;;5098709;28;20027;-68
2021/04/27 05:25:06;;;;;;;6.78;2.97;;;;;;;;;;5096617;28;20431;-68
2021/04/27 05:27:32;;;;;;;5.47;2.60;;;;;;;;;;5092423;28;20058;-68
2021/04/27 05:29:58;;;;;;;8.15;2.90;;;;;;;;;;5112527;28;20027;-68
2021/04/27 05:32:24;;;;;;;6.85;2.75;;;;;;;;;;5098141;28;20035;-68
2021/04/27 05:34:50;;;;;;;9.27;3.15;;;;;;;;;;5104696;28;20035;-68
2021/04/27 05:37:17;;;;;;;6.53;2.90;;;;;;;;;;5111312;28;20084;-68
2021/04/27 05:39:43;;;;;;;8.15;3.03;;;;;;;;;;5102469;28;20024;-68
2021/04/27 05:42:09;;;;;;;9.43;2.92;;;;;;;;;;5112326;28;20088;-68
2021/04/27 05:44:35;;;;;;;4.65;2.40;;;;;;;;;;5115427;28;20020;-68
2021/04/27 05:47:01;;;;;;;5.07;2.33;;;;;;;;;;5108939;28;20028;-68
2021/04/27 05:49:27;;;;;;;4.35;2.40;;;;;;;;;;5097627;28;20024;-67
2021/04/27 05:51:53;;;;;;;8.23;2.75;;;;;;;;;;5116332;28;20103;-67
2021/04/27 05:54:20;;;;;;;3.47;2.55;;;;;;;;;;5114080;28;20035;-68
2021/04/27 05:56:46;;;;;;;5.13;2.60;;;;;;;;;;5101213;28;20021;-68
2021/04/27 05:59:12;;;;;;;6.07;2.63;;;;;;;;;;5104168;28;20046;-67
2021/04/27 06:01:38;;;;;;;6.03;2.60;;;;;;;;;;5113550;28;20020;-67
2021/04/27 06:04:05;;;;;;;6.63;2.50;;;;;;;;;;5111778;28;20059;-67
2021/04/27 06:06:35;;;;;;;6.75;2.47;;;;;;;;;;5103219;28;20483;-67
2021/04/27 06:09:01;;;;;;;6.45;2.85;;;;;;;;;;5106922;28;20397;-68
2021/04/27 06:11:27;;;;;;;4.80;2.10;;;;;;;;;;5093578;28;20067;-69
2021/04/27 06:13:53;;;;;;;5.95;2.80;;;;;;;;;;5105902;28;20265;-68
2021/04/27 06:16:19;;;;;;;6.32;2.63;;;;;;;;;;5100693;28;20110;-68
2021/04/27 06:18:45;;;;;;;3.63;2.17;;;;;;;;;;5109958;28;20027;-69
2021/04/27 06:21:12;;;;;;;6.30;2.90;;;;;;;;;;5108287;28;20055;-69
2021/04/27 06:23:38;;;;;;;4.47;2.40;;;;;;;;;;5102252;28;20106;-70
2021/04/27 06:26:04;;;;;;;5.93;3.15;;;;;;;;;;5110745;28;20028;-69
2021/04/27 06:28:31;;;;;;;6.95;2.30;;;;;;;;;;5079941;28;20024;-69
2021/04/27 06:30:57;;;;;;;6.35;2.40;;;;;;;;;;5091518;28;20050;-71
2021/04/27 06:33:23;;;;;;;6.57;3.05;;;;;;;;;;5100687;28;20020;-69
2021/04/27 06:35:49;;;;;;;6.40;2.30;;;;;;;;;;5102547;28;20049;-68
2021/04/27 06:38:19;;;;;;;7.13;2.72;;;;;;;;;;5097052;28;20136;-69
2021/04/27 06:40:49;;;;;;;5.88;2.65;;;;;;;;;;5107639;28;20024;-68
2021/04/27 06:43:16;;;;;;;4.05;2.33;;;;;;;;;;5102185;28;20060;-69
2021/04/27 06:45:42;;;;;;;3.45;2.47;;;;;;;;;;5111434;28;20497;-69
2021/04/27 06:48:09;;;;;;;6.30;2.60;;;;;;;;;;5100709;28;20039;-68
2021/04/27 06:50:36;;;;;;;7.57;2.95;;;;;;;;;;5096212;28;20512;-69
2021/04/27 06:53:02;;;;;;;4.75;2.38;;;;;;;;;;5111120;28;20092;-69
2021/04/27 06:55:28;;;;;;;7.78;3.30;;;;;;;;;;5098912;28;20027;-65
2021/04/27 06:58:00;;;;;;;7.38;2.78;;;;;;;;;;5097076;28;20160;-70
2021/04/27 07:00:27;;;;;;;5.68;2.97;;;;;;;;;;5102688;28;20034;-68
2021/04/27 07:02:53;;;;;;;5.05;2.55;;;;;;;;;;5098336;28;20052;-67
2021/04/27 07:05:19;;;;;;;4.65;2.20;;;;;;;;;;5110100;28;20032;-70
2021/04/27 07:07:45;;;;;;;5.18;2.65;;;;;;;;;;5097268;28;20027;-69
2021/04/27 07:10:11;;;;;;;6.07;2.65;;;;;;;;;;5093525;28;20027;-68
2021/04/27 07:12:37;;;;;;;8.40;2.90;;;;;;;;;;5106704;28;20522;-68
2021/04/27 07:15:04;;;;;;;5.25;2.50;;;;;;;;;;5105919;28;20087;-68
2021/04/27 07:17:30;;;;;;;7.22;2.83;;;;;;;;;;5092035;28;20040;-68
2021/04/27 07:19:57;;;;;;;4.43;2.40;;;;;;;;;;5091782;28;20024;-70
2021/04/27 07:22:24;;;;;;;10.65;3.17;;;;;;;;;;5107411;28;20035;-72
2021/04/27 07:24:50;;;;;;;3.47;2.20;;;;;;;;;;5097324;28;20028;-67
2021/04/27 07:27:17;;;;;;;5.90;2.60;;;;;;;;;;5083613;28;20062;-70
2021/04/27 07:29:43;;;;;;;6.00;3.13;;;;;;;;;;5074099;28;20076;-69
2021/04/27 07:32:10;;;;;;;4.95;2.40;;;;;;;;;;5100932;28;20058;-70
2021/04/27 07:34:36;;;;;;;5.38;2.80;;;;;;;;;;5094552;28;20494;-69
2021/04/27 07:37:02;;;;;;;3.85;2.38;;;;;;;;;;5091216;28;20418;-69
2021/04/27 07:39:28;;;;;;;7.63;2.67;;;;;;;;;;5107921;28;20019;-68
2021/04/27 07:41:54;;;;;;;7.70;2.40;;;;;;;;;;5096823;28;20150;-65
2021/04/27 07:44:21;;;;;;;5.90;2.50;;;;;;;;;;5094327;28;20083;-68
2021/04/27 07:46:47;;;;;;;4.65;2.33;;;;;;;;;;5093129;28;20505;-66
2021/04/27 07:49:13;;;;;;;7.85;2.97;;;;;;;;;;5094702;28;20035;-66
2021/04/27 07:51:39;;;;;;;4.13;2.20;;;;;;;;;;5091280;28;20035;-68
2021/04/27 07:54:05;;;;;;;5.63;2.67;;;;;;;;;;5093651;28;20107;-67
2021/04/27 07:56:33;;;;;;;5.07;3.05;;;;;;;;;;5104088;28;20100;-65
2021/04/27 07:58:59;;;;;;;5.22;2.47;;;;;;;;;;5095789;28;20023;-69
2021/04/27 08:01:26;;;;;;;6.85;2.25;;;;;;;;;;5097663;28;20550;-67
2021/04/27 08:03:52;;;;;;;4.65;2.20;;;;;;;;;;5092195;28;20039;-69
2021/04/27 08:06:18;;;;;;;4.93;2.38;;;;;;;;;;5099236;28;20030;-69
2021/04/27 08:08:44;;;;;;;5.50;2.17;;;;;;;;;;5095791;28;20099;-68
2021/04/27 08:11:11;;;;;;;4.97;2.40;;;;;;;;;;5098312;28;20049;-68
2021/04/27 08:13:37;;;;;;;6.25;2.55;;;;;;;;;;5100257;28;20486;-70
2021/04/27 08:16:03;;;;;;;4.05;2.53;;;;;;;;;;5095168;28;20028;-65
2021/04/27 08:18:30;;;;;;;5.03;2.42;;;;;;;;;;5096839;28;20048;-69
2021/04/27 08:20:56;;;;;;;5.38;2.30;;;;;;;;;;5097940;28;20016;-68
2021/04/27 08:23:23;;;;;;;7.72;2.33;;;;;;;;;;5092906;28;20047;-69
2021/04/27 08:25:49;;;;;;;5.72;2.40;;;;;;;;;;5094302;28;20042;-67
2021/04/27 08:28:15;;;;;;;6.65;2.63;;;;;;;;;;5093271;28;20075;-70
2021/04/27 08:30:41;;;;;;;5.43;2.78;;;;;;;;;;5077277;28;20060;-70
2021/04/27 08:33:08;;;;;;;6.05;2.65;;;;;;;;;;5097267;28;20047;-70
2021/04/27 08:35:34;;;;;;;5.38;2.47;;;;;;;;;;5099163;28;20027;-70
2021/04/27 08:38:00;;;;;;;5.53;2.83;;;;;;;;;;5092514;28;20030;-67
2021/04/27 08:40:26;;;;;;;5.15;2.33;;;;;;;;;;5096147;28;20080;-69
2021/04/27 08:42:52;;;;;;;7.50;2.35;;;;;;;;;;5075943;28;20110;-66
2021/04/27 08:45:19;;;;;;;4.28;2.40;;;;;;;;;;5093178;28;20145;-68
2021/04/27 08:47:45;;;;;;;6.07;2.67;;;;;;;;;;5093017;28;20036;-68
2021/04/27 08:50:12;;;;;;;8.98;2.47;;;;;;;;;;5101002;28;20036;-68
2021/04/27 08:52:39;;;;;;;4.93;2.67;;;;;;;;;;5104461;28;20088;-70
2021/04/27 08:55:06;;;;;;;5.30;2.67;;;;;;;;;;5106027;28;20027;-68
2021/04/27 08:57:33;;;;;;;3.72;2.50;;;;;;;;;;5101401;28;20074;-69
2021/04/27 08:59:59;;;;;;;5.75;2.50;;;;;;;;;;5096277;28;20032;-65
2021/04/27 09:02:26;;;;;;;3.38;2.05;;;;;;;;;;5104683;28;20034;-70
2021/04/27 09:04:53;;;;;;;5.30;2.22;;;;;;;;;;5099092;28;20389;-69
2021/04/27 09:07:20;;;;;;;5.70;2.38;;;;;;;;;;5101263;28;20402;-70
2021/04/27 09:09:46;;;;;;;7.00;3.30;;;;;;;;;;5091448;28;20111;-68
2021/04/27 09:12:13;;;;;;;3.88;2.20;;;;;;;;;;5076645;28;20032;-70
2021/04/27 09:14:40;;;;;;;3.42;2.40;;;;;;;;;;5091497;28;20490;-71
2021/04/27 09:17:07;;;;;;;4.82;2.20;;;;;;;;;;5088362;28;20027;-70
2021/04/27 09:19:38;;;;;;;8.02;2.40;;;;;;;;;;5094250;28;20509;-68
2021/04/27 09:22:07;;;;;;;4.80;2.50;;;;;;;;;;5101210;28;20028;-70
2021/04/27 09:24:35;;;;;;;5.72;2.40;;;;;;;;;;5101875;28;20031;-69
2021/04/27 09:27:01;;;;;;;3.72;2.13;;;;;;;;;;5106899;28;20034;-68
2021/04/27 09:29:31;;;;;;;4.90;2.20;;;;;;;;;;5102492;28;20028;-70
2021/04/27 09:31:57;;;;;;;5.20;2.20;;;;;;;;;;5092566;28;20032;-69
2021/04/27 09:34:31;;;;;;;5.07;2.30;;;;;;;;;;5108089;28;20031;-69
2021/04/27 09:36:57;;;;;;;4.47;1.98;;;;;;;;;;5108022;28;20027;-67
2021/04/27 09:39:37;;;;;;;4.97;2.70;;;;;;;;;;5078797;28;20031;-68
2021/04/27 09:42:06;;;;;;;4.03;2.08;;;;;;;;;;5095055;28;20451;-69
2021/04/27 09:44:34;;;;;;;6.03;2.30;;;;;;;;;;5102608;28;20027;-66
2021/04/27 09:47:10;;;;;;;5.95;2.25;;;;;;;;;;5101468;28;20046;-70
2021/04/27 09:49:36;;;;;;;5.30;2.20;;;;;;;;;;5097658;28;20113;-65
2021/04/27 09:52:12;;;;;;;5.25;2.15;;;;;;;;;;5096458;28;20042;-71
2021/04/27 09:55:01;;;;;;;7.43;2.67;;;;;;;;;;5095021;28;20032;-68
2021/04/27 09:57:28;;;;;;;7.72;2.75;;;;;;;;;;5097087;28;20048;-69
2021/04/27 09:59:55;;;;;;;6.18;3.05;;;;;;;;;;5091253;28;20020;-70
2021/04/27 10:02:22;;;;;;;9.98;5.88;;;;;;;;;;5101147;28;20047;-69
2021/04/27 10:04:49;;;;;;;3.60;3.22;;;;;;;;;;5101108;28;20028;-69
2021/04/27 10:07:17;;;;;;;4.60;2.13;;;;;;;;;;5098245;28;20040;-70
2021/04/27 10:09:44;;;;;;;6.10;3.50;;;;;;;;;;5075637;28;20036;-66
2021/04/27 10:12:10;;;;;;;5.15;2.85;;;;;;;;;;5103609;28;20146;-69
2021/04/27 10:14:37;;;;;;;4.40;2.38;;;;;;;;;;5098779;28;20463;-69
2021/04/27 10:17:03;;;;;;;4.43;2.85;;;;;;;;;;5095066;28;20027;-67
2021/04/27 10:19:29;;;;;;;4.28;2.20;;;;;;;;;;5099012;28;20024;-69
2021/04/27 10:21:55;;;;;;;2.80;1.90;;;;;;;;;;5071494;28;20043;-70
2021/04/27 10:24:24;;;;;;;4.97;2.75;;;;;;;;;;5101119;28;20131;-69
2021/04/27 10:26:50;;;;;;;3.53;2.35;;;;;;;;;;5101403;28;20032;-69
2021/04/27 10:29:27;;;;;;;3.50;2.03;;;;;;;;;;5103577;28;20118;-69
2021/04/27 10:32:11;;;;;;;5.85;2.15;;;;;;;;;;5089235;28;20394;-66
2021/04/27 10:34:37;;;;;;;4.13;2.00;;;;;;;;;;5089807;28;20050;-68
2021/04/27 10:37:03;;;;;;;2.72;1.98;;;;;;;;;;5096500;28;20043;-68
2021/04/27 10:39:35;;;;;;;3.97;2.15;;;;;;;;;;5096222;28;20032;-68
2021/04/27 10:42:15;;;;;;;3.75;2.13;;;;;;;;;;5099114;28;20024;-69
2021/04/27 10:44:53;;;;;;;3.83;1.90;;;;;;;;;;5085620;28;20077;-69
2021/04/27 10:47:20;;;;;;;2.42;1.90;;;;;;;;;;5097100;28;20032;-66
2021/04/27 10:49:46;;;;;;;4.07;2.08;;;;;;;;;;5096532;28;20034;-68
2021/04/27 10:52:33;;;;;;;2.15;1.80;;;;;;;;;;5098961;28;20501;-69
2021/04/27 10:55:17;;;;;;;3.13;1.88;;;;;;;;;;5103979;28;20097;-69
2021/04/27 10:57:47;;;;;;;3.70;1.85;;;;;;;;;;5104462;28;20042;-69
2021/04/27 11:00:32;;;;;;;1.67;1.58;;;;;;;;;;5093504;28;20027;-69
2021/04/27 11:03:18;;;;;;;3.25;2.08;;;;;;;;;;5098592;28;20027;-68
2021/04/27 11:05:51;;;;;;;3.30;2.00;;;;;;;;;;5092322;28;20039;-68
2021/04/27 11:08:18;;;;;;;4.43;1.67;;;;;;;;;;5098405;28;20028;-70
2021/04/27 11:10:45;;;;;;;2.65;1.77;;;;;;;;;;5094113;28;20054;-71
2021/04/27 11:13:12;;;;;;;3.17;1.80;;;;;;;;;;5095574;28;20089;-70
2021/04/27 11:15:40;;;;;;;4.53;1.95;;;;;;;;;;5094766;28;20039;-68
2021/04/27 11:18:08;;;;;;;2.97;2.10;;;;;;;;;;5095397;28;20043;-66
2021/04/27 11:20:54;;;;;;;2.28;1.95;;;;;;;;;;5106723;28;20114;-68
2021/04/27 11:23:38;;;;;;;1.45;1.38;;;;;;;;;;5102825;28;20036;-69
2021/04/27 11:26:24;;;;;;;2.40;1.60;;;;;;;;;;5091426;28;20032;-69
2021/04/27 11:28:52;;;;;;;2.00;1.60;;;;;;;;;;5087908;28;20080;-69
2021/04/27 11:31:18;;;;;;;4.25;2.70;;;;;;;;;;5093542;28;20027;-70
2021/04/27 11:33:44;;;;;;;2.30;1.60;;;;;;;;;;5097995;28;20027;-68
2021/04/27 11:36:10;;;;;;;3.15;1.77;;;;;;;;;;5106103;28;20027;-71
2021/04/27 11:38:36;;;;;;;2.15;1.70;;;;;;;;;;5081309;28;20034;-69
2021/04/27 11:41:02;;;;;;;1.70;1.60;;;;;;;;;;5101741;28;20031;-66
2021/04/27 11:43:28;;;;;;;1.80;1.70;;;;;;;;;;5095746;28;20031;-66
2021/04/27 11:45:54;;;;;;;1.73;1.63;;;;;;;;;;5099953;28;20724;-64
2021/04/27 11:48:22;;;;;;;3.20;2.05;;;;;;;;;;5108391;28;20036;-71
2021/04/27 11:50:48;;;;;;;2.17;1.70;;;;;;;;;;5088570;28;20039;-65
2021/04/27 11:53:18;;;;;;;3.17;1.70;;;;;;;;;;5100021;28;20023;-70
2021/04/27 11:55:46;;;;;;;2.17;1.75;;;;;;;;;;5096638;28;20031;-70
2021/04/27 11:58:12;;;;;;;2.40;1.70;;;;;;;;;;5101707;28;20115;-66
2021/04/27 12:00:40;;;;;;;2.30;1.80;;;;;;;;;;5098600;28;20139;-69
2021/04/27 12:03:24;;;;;;;1.95;1.67;;;;;;;;;;5103246;28;20019;-70
2021/04/27 12:05:53;;;;;;;1.93;1.53;;;;;;;;;;5100541;28;20026;-69
2021/04/27 12:08:21;;;;;;;2.35;1.70;;;;;;;;;;5097579;28;20108;-65
2021/04/27 12:10:47;;;;;;;2.88;1.80;;;;;;;;;;5096729;28;20031;-71
2021/04/27 12:13:17;;;;;;;4.53;1.60;;;;;;;;;;5106106;28;20039;-70
2021/04/27 12:15:43;;;;;;;2.75;1.83;;;;;;;;;;5102085;28;20028;-70
2021/04/27 12:18:10;;;;;;;3.35;1.73;;;;;;;;;;5095374;28;20028;-70
2021/04/27 12:20:36;;;;;;;3.20;1.65;;;;;;;;;;5098688;28;20027;-70
2021/04/27 12:23:04;;;;;;;2.10;1.70;;;;;;;;;;5097316;28;20098;-67
2021/04/27 12:25:31;;;;;;;3.58;1.80;;;;;;;;;;5101056;28;20027;-70
2021/04/27 12:28:03;;;;;;;2.28;1.58;;;;;;;;;;5099220;28;20477;-72
2021/04/27 12:30:30;;;;;;;2.97;1.98;;;;;;;;;;5101433;28;20177;-71
2021/04/27 12:33:10;;;;;;;4.88;1.90;;;;;;;;;;5108784;28;20027;-72
2021/04/27 12:35:38;;;;;;;2.53;1.90;;;;;;;;;;5103444;28;20139;-71
2021/04/27 12:38:14;;;;;;;2.90;1.80;;;;;;;;;;5096223;28;20024;-71
2021/04/27 12:40:42;;;;;;;3.35;1.95;;;;;;;;;;5097581;28;20154;-70
2021/04/27 12:43:12;;;;;;;2.03;1.85;;;;;;;;;;5093564;28;20085;-70
2021/04/27 12:45:52;;;;;;;1.50;1.40;;;;;;;;;;5100836;28;20043;-69
2021/04/27 12:48:19;;;;;;;2.55;1.60;;;;;;;;;;5087001;28;20491;-69
2021/04/27 12:50:45;;;;;;;1.50;1.40;;;;;;;;;;5087810;28;20036;-68
2021/04/27 12:53:11;;;;;;;1.48;1.38;;;;;;;;;;5100623;28;20080;-71
2021/04/27 12:55:38;;;;;;;1.63;1.48;;;;;;;;;;5097168;28;20046;-68
2021/04/27 12:58:07;;;;;;;1.40;1.35;;;;;;;;;;5093151;28;20107;-68
2021/04/27 13:00:33;;;;;;;3.17;1.50;;;;;;;;;;5101455;28;20030;-71
2021/04/27 13:03:13;;;;;;;2.10;1.60;;;;;;;;;;5095662;28;20055;-67
2021/04/27 13:05:39;;;;;;;2.25;1.60;;;;;;;;;;5093465;28;20386;-69
2021/04/27 13:08:06;;;;;;;1.98;1.75;;;;;;;;;;5105574;28;20162;-67
2021/04/27 13:10:40;;;;;;;5.30;1.77;;;;;;;;;;5097831;28;20414;-68
2021/04/27 13:13:14;;;;;;;2.75;1.90;;;;;;;;;;5091551;28;20105;-68
2021/04/27 13:15:40;;;;;;;2.08;1.65;;;;;;;;;;5091293;28;20242;-69
2021/04/27 13:18:07;;;;;;;4.75;2.00;;;;;;;;;;5085789;28;20444;-69
2021/04/27 13:20:43;;;;;;;2.60;1.80;;;;;;;;;;5092276;28;20035;-71
2021/04/27 13:23:11;;;;;;;2.83;1.80;;;;;;;;;;5078891;28;20024;-70
2021/04/27 13:25:39;;;;;;;1.80;1.70;;;;;;;;;;5100786;28;20496;-71
2021/04/27 13:28:07;;;;;;;2.42;1.80;;;;;;;;;;5098830;28;20045;-70
2021/04/27 13:30:35;;;;;;;3.08;1.92;;;;;;;;;;5098322;28;20036;-69
2021/04/27 13:33:07;;;;;;;2.30;2.00;;;;;;;;;;5090832;28;20086;-69
2021/04/27 13:35:35;;;;;;;2.22;2.03;;;;;;;;;;5095945;28;20032;-68
2021/04/27 13:38:02;;;;;;;2.83;2.17;;;;;;;;;;5097685;28;20097;-67
2021/04/27 13:40:29;;;;;;;2.80;2.15;;;;;;;;;;5103659;28;20046;-69
2021/04/27 13:43:03;;;;;;;2.55;2.20;;;;;;;;;;5105967;28;20024;-68
2021/04/27 13:45:30;;;;;;;2.78;2.30;;;;;;;;;;5094037;28;20032;-70
2021/04/27 13:47:57;;;;;;;4.47;2.25;;;;;;;;;;5095522;28;20480;-70
2021/04/27 13:50:23;;;;;;;3.13;2.60;;;;;;;;;;5096750;28;20027;-66
2021/04/27 13:52:49;;;;;;;6.90;2.97;;;;;;;;;;5098215;28;20031;-68
2021/04/27 13:55:16;;;;;;;3.63;2.40;;;;;;;;;;5099180;28;20397;-69
2021/04/27 13:57:42;;;;;;;3.75;2.60;;;;;;;;;;5095628;28;20491;-71
2021/04/27 14:00:09;;;;;;;3.90;2.78;;;;;;;;;;5099158;28;20106;-69
2021/04/27 14:02:36;;;;;;;3.25;2.45;;;;;;;;;;5098178;28;20020;-68
2021/04/27 14:05:04;;;;;;;2.58;2.05;;;;;;;;;;5100792;28;20055;-69
2021/04/27 14:07:30;;;;;;;4.22;1.90;;;;;;;;;;5106162;28;20028;-69
2021/04/27 14:09:56;;;;;;;1.55;1.45;;;;;;;;;;5105613;28;20036;-70
2021/04/27 14:12:24;;;;;;;2.58;1.70;;;;;;;;;;5095658;28;20120;-70
2021/04/27 14:14:51;;;;;;;2.33;1.70;;;;;;;;;;5088698;28;20067;-68
2021/04/27 14:17:17;;;;;;;2.53;2.33;;;;;;;;;;5099276;28;20035;-68
2021/04/27 14:19:43;;;;;;;2.50;2.10;;;;;;;;;;5110392;28;20068;-69
2021/04/27 14:22:10;;;;;;;5.10;2.78;;;;;;;;;;5098101;28;20028;-69
2021/04/27 14:24:36;;;;;;;3.30;2.35;;;;;;;;;;5094987;28;20112;-68
2021/04/27 14:27:02;;;;;;;3.97;2.40;;;;;;;;;;5090442;28;20036;-68
2021/04/27 14:29:28;;;;;;;2.92;2.22;;;;;;;;;;5096892;28;20494;-68
2021/04/27 14:31:54;;;;;;;2.63;1.90;;;;;;;;;;5100250;28;20032;-65
2021/04/27 14:34:20;;;;;;;4.43;2.10;;;;;;;;;;5093646;28;20032;-69
2021/04/27 14:36:46;;;;;;;2.35;2.05;;;;;;;;;;5099066;28;20085;-69
2021/04/27 14:39:12;;;;;;;2.40;2.20;;;;;;;;;;5083653;28;20048;-68
2021/04/27 14:41:42;;;;;;;3.33;2.10;;;;;;;;;;5106283;28;20378;-68
2021/04/27 14:44:08;;;;;;;2.58;1.88;;;;;;;;;;5089189;28;20089;-67
2021/04/27 14:46:34;;;;;;;2.35;2.10;;;;;;;;;;5091096;28;20035;-67